sensor_id;sensor_type;location;lat;lon;timestamp;temperature;humidity
59309;DHT22;48433;53.016;-2.260;2023-05-16T00:02:09;8.20;99.90
59309;DHT22;48433;53.016;-2.260;2023-05-16T00:04:37;8.20;99.90
59309;DHT22;48433;53.016;-2.260;2023-05-16T00:07:04;8.10;99.90
59309;DHT22;48433;53.016;-2.260;2023-05-16T00:09:32;8.10;99.90
59309;DHT22;48433;53.016;-2.260;2023-05-16T00:11:59;8.10;99.90
59309;DHT22;48433;53.016;-2.260;2023-05-16T00:14:27;8.00;99.90
59309;DHT22;48433;53.016;-2.260;2023-05-16T00:16:55;8.00;99.90
59309;DHT22;48433;53.016;-2.260;2023-05-16T00:19:25;8.00;99.90
59309;DHT22;48433;53.016;-2.260;2023-05-16T00:21:54;7.90;99.90
59309;DHT22;48433;53.016;-2.260;2023-05-16T00:24:21;7.90;99.90
59309;DHT22;48433;53.016;-2.260;2023-05-16T00:26:49;7.90;99.90
59309;DHT22;48433;53.016;-2.260;2023-05-16T00:29:17;7.80;99.90
59309;DHT22;48433;53.016;-2.260;2023-05-16T00:31:44;7.80;99.90
59309;DHT22;48433;53.016;-2.260;2023-05-16T00:34:12;7.90;99.90
59309;DHT22;48433;53.016;-2.260;2023-05-16T00:36:39;7.80;99.90
59309;DHT22;48433;53.016;-2.260;2023-05-16T00:39:07;7.80;99.90
59309;DHT22;48433;53.016;-2.260;2023-05-16T00:41:38;7.80;99.90
59309;DHT22;48433;53.016;-2.260;2023-05-16T00:44:05;7.80;99.90
59309;DHT22;48433;53.016;-2.260;2023-05-16T00:46:34;7.80;99.90
59309;DHT22;48433;53.016;-2.260;2023-05-16T00:49:03;7.80;99.90
59309;DHT22;48433;53.016;-2.260;2023-05-16T00:51:31;7.70;99.90
59309;DHT22;48433;53.016;-2.260;2023-05-16T00:53:59;7.70;99.90
59309;DHT22;48433;53.016;-2.260;2023-05-16T00:56:27;7.70;99.90
59309;DHT22;48433;53.016;-2.260;2023-05-16T00:58:55;7.60;99.90
59309;DHT22;48433;53.016;-2.260;2023-05-16T01:01:24;7.60;99.90
59309;DHT22;48433;53.016;-2.260;2023-05-16T01:03:53;7.60;99.90
59309;DHT22;48433;53.016;-2.260;2023-05-16T01:06:21;7.60;99.90
59309;DHT22;48433;53.016;-2.260;2023-05-16T01:08:49;7.60;99.90
59309;DHT22;48433;53.016;-2.260;2023-05-16T01:22:46;7.50;99.90
59309;DHT22;48433;53.016;-2.260;2023-05-16T01:28:15;7.30;99.90
59309;DHT22;48433;53.016;-2.260;2023-05-16T01:30:43;7.30;99.90
59309;DHT22;48433;53.016;-2.260;2023-05-16T01:33:11;7.30;99.90
59309;DHT22;48433;53.016;-2.260;2023-05-16T01:35:52;7.30;99.90
59309;DHT22;48433;53.016;-2.260;2023-05-16T01:38:29;7.20;99.90
59309;DHT22;48433;53.016;-2.260;2023-05-16T01:44:15;7.20;99.90
59309;DHT22;48433;53.016;-2.260;2023-05-16T01:46:46;7.20;99.90
59309;DHT22;48433;53.016;-2.260;2023-05-16T01:52:01;7.10;99.90
59309;DHT22;48433;53.016;-2.260;2023-05-16T01:54:31;6.80;99.90
59309;DHT22;48433;53.016;-2.260;2023-05-16T01:57:01;6.70;99.90
59309;DHT22;48433;53.016;-2.260;2023-05-16T01:59:31;6.60;99.90
59309;DHT22;48433;53.016;-2.260;2023-05-16T02:01:59;6.60;99.90
59309;DHT22;48433;53.016;-2.260;2023-05-16T02:04:27;6.60;99.90
59309;DHT22;48433;53.016;-2.260;2023-05-16T02:06:55;6.40;99.90
59309;DHT22;48433;53.016;-2.260;2023-05-16T02:11:52;6.60;99.90
59309;DHT22;48433;53.016;-2.260;2023-05-16T02:14:20;6.50;99.90
59309;DHT22;48433;53.016;-2.260;2023-05-16T02:16:47;6.60;99.90
59309;DHT22;48433;53.016;-2.260;2023-05-16T02:19:16;6.60;99.90
59309;DHT22;48433;53.016;-2.260;2023-05-16T02:21:44;6.60;99.90
59309;DHT22;48433;53.016;-2.260;2023-05-16T02:24:12;6.50;99.90
59309;DHT22;48433;53.016;-2.260;2023-05-16T02:26:39;6.40;99.90
59309;DHT22;48433;53.016;-2.260;2023-05-16T02:29:08;6.30;99.90
59309;DHT22;48433;53.016;-2.260;2023-05-16T02:31:36;6.20;99.90
59309;DHT22;48433;53.016;-2.260;2023-05-16T02:34:04;6.20;99.90
59309;DHT22;48433;53.016;-2.260;2023-05-16T02:51:24;6.50;99.90
59309;DHT22;48433;53.016;-2.260;2023-05-16T02:53:53;6.50;99.90
59309;DHT22;48433;53.016;-2.260;2023-05-16T02:58:52;6.60;99.90
59309;DHT22;48433;53.016;-2.260;2023-05-16T03:01:20;6.60;99.90
59309;DHT22;48433;53.016;-2.260;2023-05-16T03:06:16;6.60;99.90
59309;DHT22;48433;53.016;-2.260;2023-05-16T03:08:44;6.70;99.90
59309;DHT22;48433;53.016;-2.260;2023-05-16T03:11:12;6.60;99.90
59309;DHT22;48433;53.016;-2.260;2023-05-16T03:13:40;6.60;99.90
59309;DHT22;48433;53.016;-2.260;2023-05-16T03:16:08;6.60;99.90
59309;DHT22;48433;53.016;-2.260;2023-05-16T03:18:35;6.60;99.90
59309;DHT22;48433;53.016;-2.260;2023-05-16T03:21:03;6.60;99.90
59309;DHT22;48433;53.016;-2.260;2023-05-16T03:40:47;6.50;99.90
59309;DHT22;48433;53.016;-2.260;2023-05-16T03:50:39;6.40;99.90
59309;DHT22;48433;53.016;-2.260;2023-05-16T03:53:08;6.40;99.90
59309;DHT22;48433;53.016;-2.260;2023-05-16T03:58:03;6.40;99.90
59309;DHT22;48433;53.016;-2.260;2023-05-16T04:03:00;6.40;99.90
59309;DHT22;48433;53.016;-2.260;2023-05-16T04:07:57;6.30;99.90
59309;DHT22;48433;53.016;-2.260;2023-05-16T04:10:24;6.20;99.90
59309;DHT22;48433;53.016;-2.260;2023-05-16T04:12:52;6.10;99.90
59309;DHT22;48433;53.016;-2.260;2023-05-16T04:15:19;6.10;99.90
59309;DHT22;48433;53.016;-2.260;2023-05-16T04:25:11;6.10;99.90
59309;DHT22;48433;53.016;-2.260;2023-05-16T04:27:38;6.10;99.90
59309;DHT22;48433;53.016;-2.260;2023-05-16T04:30:06;6.10;99.90
59309;DHT22;48433;53.016;-2.260;2023-05-16T04:35:03;6.10;99.90
59309;DHT22;48433;53.016;-2.260;2023-05-16T04:37:30;6.10;99.90
59309;DHT22;48433;53.016;-2.260;2023-05-16T04:39:58;6.10;99.90
59309;DHT22;48433;53.016;-2.260;2023-05-16T04:42:26;6.10;99.90
59309;DHT22;48433;53.016;-2.260;2023-05-16T04:44:53;6.20;99.90
59309;DHT22;48433;53.016;-2.260;2023-05-16T04:49:49;6.20;99.90
59309;DHT22;48433;53.016;-2.260;2023-05-16T04:52:17;6.30;99.90
59309;DHT22;48433;53.016;-2.260;2023-05-16T04:54:45;6.30;99.90
59309;DHT22;48433;53.016;-2.260;2023-05-16T04:57:12;6.30;99.90
59309;DHT22;48433;53.016;-2.260;2023-05-16T05:02:08;6.40;99.90
59309;DHT22;48433;53.016;-2.260;2023-05-16T05:04:36;6.50;99.90
59309;DHT22;48433;53.016;-2.260;2023-05-16T05:07:04;6.50;99.90
59309;DHT22;48433;53.016;-2.260;2023-05-16T05:09:31;6.60;99.90
59309;DHT22;48433;53.016;-2.260;2023-05-16T05:16:55;6.80;99.90
59309;DHT22;48433;53.016;-2.260;2023-05-16T05:21:50;6.90;99.90
59309;DHT22;48433;53.016;-2.260;2023-05-16T05:24:18;6.90;99.90
59309;DHT22;48433;53.016;-2.260;2023-05-16T05:26:45;7.00;99.90
59309;DHT22;48433;53.016;-2.260;2023-05-16T05:36:37;7.30;99.90
59309;DHT22;48433;53.016;-2.260;2023-05-16T05:39:04;7.30;99.90
59309;DHT22;48433;53.016;-2.260;2023-05-16T05:41:32;7.40;99.90
59309;DHT22;48433;53.016;-2.260;2023-05-16T05:44:00;7.50;99.90
59309;DHT22;48433;53.016;-2.260;2023-05-16T05:46:27;7.60;99.90
59309;DHT22;48433;53.016;-2.260;2023-05-16T05:53:52;7.90;99.90
59309;DHT22;48433;53.016;-2.260;2023-05-16T05:58:48;8.10;99.90
59309;DHT22;48433;53.016;-2.260;2023-05-16T06:03:44;8.20;99.90
59309;DHT22;48433;53.016;-2.260;2023-05-16T06:06:12;8.30;99.90
59309;DHT22;48433;53.016;-2.260;2023-05-16T06:13:37;8.60;99.90
59309;DHT22;48433;53.016;-2.260;2023-05-16T06:18:35;8.80;99.90
59309;DHT22;48433;53.016;-2.260;2023-05-16T06:28:27;9.30;99.90
59309;DHT22;48433;53.016;-2.260;2023-05-16T06:30:54;9.50;99.90
59309;DHT22;48433;53.016;-2.260;2023-05-16T06:33:22;9.70;99.90
59309;DHT22;48433;53.016;-2.260;2023-05-16T06:35:49;9.90;99.90
59309;DHT22;48433;53.016;-2.260;2023-05-16T06:38:18;10.00;99.90
59309;DHT22;48433;53.016;-2.260;2023-05-16T06:40:46;10.20;99.90
59309;DHT22;48433;53.016;-2.260;2023-05-16T06:45:41;10.40;99.90
59309;DHT22;48433;53.016;-2.260;2023-05-16T06:48:10;10.40;99.90
59309;DHT22;48433;53.016;-2.260;2023-05-16T06:53:06;10.60;99.90
59309;DHT22;48433;53.016;-2.260;2023-05-16T06:55:34;10.70;99.90
59309;DHT22;48433;53.016;-2.260;2023-05-16T06:58:02;10.80;99.90
59309;DHT22;48433;53.016;-2.260;2023-05-16T07:00:54;11.00;99.90
59309;DHT22;48433;53.016;-2.260;2023-05-16T07:03:22;10.90;99.90
59309;DHT22;48433;53.016;-2.260;2023-05-16T07:05:50;11.20;99.90
59309;DHT22;48433;53.016;-2.260;2023-05-16T07:08:19;11.20;99.90
59309;DHT22;48433;53.016;-2.260;2023-05-16T07:10:47;11.30;99.90
59309;DHT22;48433;53.016;-2.260;2023-05-16T07:13:14;11.30;99.90
59309;DHT22;48433;53.016;-2.260;2023-05-16T07:15:42;11.30;99.90
59309;DHT22;48433;53.016;-2.260;2023-05-16T07:18:09;11.40;99.90
59309;DHT22;48433;53.016;-2.260;2023-05-16T07:20:37;11.40;99.90
59309;DHT22;48433;53.016;-2.260;2023-05-16T07:23:05;11.40;99.90
59309;DHT22;48433;53.016;-2.260;2023-05-16T07:25:33;11.40;99.90
59309;DHT22;48433;53.016;-2.260;2023-05-16T07:28:00;11.40;99.90
59309;DHT22;48433;53.016;-2.260;2023-05-16T07:30:28;11.50;99.90
59309;DHT22;48433;53.016;-2.260;2023-05-16T07:32:56;11.50;99.90
59309;DHT22;48433;53.016;-2.260;2023-05-16T07:35:24;11.70;99.90
59309;DHT22;48433;53.016;-2.260;2023-05-16T07:37:52;11.70;99.90
59309;DHT22;48433;53.016;-2.260;2023-05-16T07:40:20;11.90;99.90
59309;DHT22;48433;53.016;-2.260;2023-05-16T07:42:52;11.80;99.90
59309;DHT22;48433;53.016;-2.260;2023-05-16T07:45:19;12.00;99.90
59309;DHT22;48433;53.016;-2.260;2023-05-16T07:47:47;12.00;99.90
59309;DHT22;48433;53.016;-2.260;2023-05-16T07:50:15;12.10;99.90
59309;DHT22;48433;53.016;-2.260;2023-05-16T07:52:42;12.20;99.90
59309;DHT22;48433;53.016;-2.260;2023-05-16T07:55:10;12.20;99.90
59309;DHT22;48433;53.016;-2.260;2023-05-16T07:57:38;12.50;99.90
59309;DHT22;48433;53.016;-2.260;2023-05-16T08:00:06;12.50;99.90
59309;DHT22;48433;53.016;-2.260;2023-05-16T08:02:39;12.70;99.90
59309;DHT22;48433;53.016;-2.260;2023-05-16T08:05:07;12.80;99.90
59309;DHT22;48433;53.016;-2.260;2023-05-16T08:07:35;13.00;99.90
59309;DHT22;48433;53.016;-2.260;2023-05-16T08:10:04;13.20;99.90
59309;DHT22;48433;53.016;-2.260;2023-05-16T08:12:31;13.50;99.90
59309;DHT22;48433;53.016;-2.260;2023-05-16T08:14:59;13.90;99.90
59309;DHT22;48433;53.016;-2.260;2023-05-16T08:17:27;13.80;99.90
59309;DHT22;48433;53.016;-2.260;2023-05-16T08:19:54;13.90;99.90
59309;DHT22;48433;53.016;-2.260;2023-05-16T08:22:22;13.90;99.90
59309;DHT22;48433;53.016;-2.260;2023-05-16T08:24:50;13.90;99.90
59309;DHT22;48433;53.016;-2.260;2023-05-16T08:27:18;14.00;99.90
59309;DHT22;48433;53.016;-2.260;2023-05-16T08:29:45;13.90;99.90
59309;DHT22;48433;53.016;-2.260;2023-05-16T08:32:13;13.80;99.90
59309;DHT22;48433;53.016;-2.260;2023-05-16T08:34:41;13.80;99.90
59309;DHT22;48433;53.016;-2.260;2023-05-16T08:37:08;13.80;99.90
59309;DHT22;48433;53.016;-2.260;2023-05-16T08:39:39;13.70;99.90
59309;DHT22;48433;53.016;-2.260;2023-05-16T08:42:07;13.70;99.90
59309;DHT22;48433;53.016;-2.260;2023-05-16T08:44:35;13.80;99.90
59309;DHT22;48433;53.016;-2.260;2023-05-16T08:47:28;13.80;99.90
59309;DHT22;48433;53.016;-2.260;2023-05-16T08:49:56;13.90;99.90
59309;DHT22;48433;53.016;-2.260;2023-05-16T08:52:26;13.80;99.90
59309;DHT22;48433;53.016;-2.260;2023-05-16T08:55:01;13.90;99.90
59309;DHT22;48433;53.016;-2.260;2023-05-16T08:57:38;14.00;99.90
59309;DHT22;48433;53.016;-2.260;2023-05-16T09:00:07;14.00;99.90
59309;DHT22;48433;53.016;-2.260;2023-05-16T09:02:42;14.20;99.90
59309;DHT22;48433;53.016;-2.260;2023-05-16T09:05:14;14.20;99.90
59309;DHT22;48433;53.016;-2.260;2023-05-16T09:07:42;14.80;99.90
59309;DHT22;48433;53.016;-2.260;2023-05-16T09:10:11;14.80;99.90
59309;DHT22;48433;53.016;-2.260;2023-05-16T09:12:40;15.10;99.90
59309;DHT22;48433;53.016;-2.260;2023-05-16T09:15:09;15.30;99.90
59309;DHT22;48433;53.016;-2.260;2023-05-16T09:17:41;15.60;99.90
59309;DHT22;48433;53.016;-2.260;2023-05-16T09:20:17;15.80;99.90
59309;DHT22;48433;53.016;-2.260;2023-05-16T09:22:54;15.80;99.90
59309;DHT22;48433;53.016;-2.260;2023-05-16T09:25:24;15.90;99.90
59309;DHT22;48433;53.016;-2.260;2023-05-16T09:27:59;16.00;99.90
59309;DHT22;48433;53.016;-2.260;2023-05-16T09:33:09;16.00;99.90
59309;DHT22;48433;53.016;-2.260;2023-05-16T09:35:37;16.10;99.90
59309;DHT22;48433;53.016;-2.260;2023-05-16T09:38:16;16.10;99.90
59309;DHT22;48433;53.016;-2.260;2023-05-16T09:40:44;16.00;99.90
59309;DHT22;48433;53.016;-2.260;2023-05-16T09:43:16;15.90;99.90
59309;DHT22;48433;53.016;-2.260;2023-05-16T09:45:46;15.80;99.90
59309;DHT22;48433;53.016;-2.260;2023-05-16T09:48:15;16.00;99.90
59309;DHT22;48433;53.016;-2.260;2023-05-16T09:50:48;16.30;99.90
59309;DHT22;48433;53.016;-2.260;2023-05-16T09:53:26;16.80;99.90
59309;DHT22;48433;53.016;-2.260;2023-05-16T09:56:05;17.10;99.60
59309;DHT22;48433;53.016;-2.260;2023-05-16T09:58:36;17.20;98.80
59309;DHT22;48433;53.016;-2.260;2023-05-16T10:01:05;17.30;98.70
59309;DHT22;48433;53.016;-2.260;2023-05-16T10:03:34;17.40;98.60
59309;DHT22;48433;53.016;-2.260;2023-05-16T10:06:03;17.40;98.50
59309;DHT22;48433;53.016;-2.260;2023-05-16T10:08:33;17.20;98.50
59309;DHT22;48433;53.016;-2.260;2023-05-16T10:11:04;17.10;99.10
59309;DHT22;48433;53.016;-2.260;2023-05-16T10:13:35;17.40;98.20
59309;DHT22;48433;53.016;-2.260;2023-05-16T10:16:11;17.70;97.60
59309;DHT22;48433;53.016;-2.260;2023-05-16T10:18:41;17.80;97.00
59309;DHT22;48433;53.016;-2.260;2023-05-16T10:21:14;17.60;96.20
59309;DHT22;48433;53.016;-2.260;2023-05-16T10:23:47;17.40;96.20
59309;DHT22;48433;53.016;-2.260;2023-05-16T10:26:16;17.30;96.60
59309;DHT22;48433;53.016;-2.260;2023-05-16T10:28:44;17.30;96.00
59309;DHT22;48433;53.016;-2.260;2023-05-16T10:31:12;17.30;95.90
59309;DHT22;48433;53.016;-2.260;2023-05-16T10:33:41;17.60;95.50
59309;DHT22;48433;53.016;-2.260;2023-05-16T10:36:09;18.10;94.30
59309;DHT22;48433;53.016;-2.260;2023-05-16T10:38:38;18.60;92.80
59309;DHT22;48433;53.016;-2.260;2023-05-16T10:41:07;19.20;91.80
59309;DHT22;48433;53.016;-2.260;2023-05-16T10:43:35;19.80;90.30
59309;DHT22;48433;53.016;-2.260;2023-05-16T10:46:06;20.00;87.50
59309;DHT22;48433;53.016;-2.260;2023-05-16T10:48:36;20.10;84.50
59309;DHT22;48433;53.016;-2.260;2023-05-16T10:54:07;20.60;80.80
59309;DHT22;48433;53.016;-2.260;2023-05-16T10:56:36;20.60;78.70
59309;DHT22;48433;53.016;-2.260;2023-05-16T10:59:04;20.70;77.40
59309;DHT22;48433;53.016;-2.260;2023-05-16T11:01:52;20.90;76.10
59309;DHT22;48433;53.016;-2.260;2023-05-16T11:06:51;21.50;72.80
59309;DHT22;48433;53.016;-2.260;2023-05-16T11:09:24;21.80;70.50
59309;DHT22;48433;53.016;-2.260;2023-05-16T11:12:01;22.00;68.70
59309;DHT22;48433;53.016;-2.260;2023-05-16T11:14:40;22.10;67.40
59309;DHT22;48433;53.016;-2.260;2023-05-16T11:17:14;22.10;67.90
59309;DHT22;48433;53.016;-2.260;2023-05-16T11:19:48;21.70;64.50
59309;DHT22;48433;53.016;-2.260;2023-05-16T11:24:51;22.90;67.10
59309;DHT22;48433;53.016;-2.260;2023-05-16T11:27:19;21.40;66.70
59309;DHT22;48433;53.016;-2.260;2023-05-16T11:29:47;21.50;65.40
59309;DHT22;48433;53.016;-2.260;2023-05-16T11:32:18;21.60;64.70
59309;DHT22;48433;53.016;-2.260;2023-05-16T11:34:49;21.80;64.60
59309;DHT22;48433;53.016;-2.260;2023-05-16T11:37:18;22.20;62.90
59309;DHT22;48433;53.016;-2.260;2023-05-16T11:39:46;22.50;62.50
59309;DHT22;48433;53.016;-2.260;2023-05-16T11:42:14;22.90;61.70
59309;DHT22;48433;53.016;-2.260;2023-05-16T11:44:44;23.00;60.40
59309;DHT22;48433;53.016;-2.260;2023-05-16T11:47:12;23.10;58.60
59309;DHT22;48433;53.016;-2.260;2023-05-16T11:49:39;23.20;57.90
59309;DHT22;48433;53.016;-2.260;2023-05-16T11:52:07;22.90;57.70
59309;DHT22;48433;53.016;-2.260;2023-05-16T11:54:36;22.20;58.60
59309;DHT22;48433;53.016;-2.260;2023-05-16T11:57:04;21.50;59.90
59309;DHT22;48433;53.016;-2.260;2023-05-16T11:59:32;21.20;62.10
59309;DHT22;48433;53.016;-2.260;2023-05-16T12:02:02;21.20;63.60
59309;DHT22;48433;53.016;-2.260;2023-05-16T12:04:31;21.70;64.60
59309;DHT22;48433;53.016;-2.260;2023-05-16T12:07:00;22.30;63.70
59309;DHT22;48433;53.016;-2.260;2023-05-16T12:11:56;21.80;61.10
59309;DHT22;48433;53.016;-2.260;2023-05-16T12:14:24;21.80;63.00
59309;DHT22;48433;53.016;-2.260;2023-05-16T12:16:52;21.90;63.20
59309;DHT22;48433;53.016;-2.260;2023-05-16T12:19:20;22.00;62.60
59309;DHT22;48433;53.016;-2.260;2023-05-16T12:21:52;21.90;62.60
59309;DHT22;48433;53.016;-2.260;2023-05-16T12:24:20;21.60;62.80
59309;DHT22;48433;53.016;-2.260;2023-05-16T12:26:48;21.50;64.10
59309;DHT22;48433;53.016;-2.260;2023-05-16T12:29:19;21.50;64.70
59309;DHT22;48433;53.016;-2.260;2023-05-16T12:31:52;21.70;63.50
59309;DHT22;48433;53.016;-2.260;2023-05-16T12:34:20;21.70;63.90
59309;DHT22;48433;53.016;-2.260;2023-05-16T12:36:51;21.80;64.20
59309;DHT22;48433;53.016;-2.260;2023-05-16T12:39:20;21.80;63.10
59309;DHT22;48433;53.016;-2.260;2023-05-16T12:41:49;21.50;62.70
59309;DHT22;48433;53.016;-2.260;2023-05-16T12:44:18;21.00;63.60
59309;DHT22;48433;53.016;-2.260;2023-05-16T12:46:48;20.50;65.90
59309;DHT22;48433;53.016;-2.260;2023-05-16T12:49:20;20.80;66.20
59309;DHT22;48433;53.016;-2.260;2023-05-16T12:51:52;21.40;66.10
59309;DHT22;48433;53.016;-2.260;2023-05-16T12:54:20;21.90;64.00
59309;DHT22;48433;53.016;-2.260;2023-05-16T12:56:51;22.50;62.50
59309;DHT22;48433;53.016;-2.260;2023-05-16T12:59:19;23.00;60.50
59309;DHT22;48433;53.016;-2.260;2023-05-16T13:01:47;23.10;59.10
59309;DHT22;48433;53.016;-2.260;2023-05-16T13:06:45;23.20;59.80
59309;DHT22;48433;53.016;-2.260;2023-05-16T13:09:25;23.40;58.90
59309;DHT22;48433;53.016;-2.260;2023-05-16T13:11:57;23.50;57.00
59309;DHT22;48433;53.016;-2.260;2023-05-16T13:14:26;23.30;57.10
59309;DHT22;48433;53.016;-2.260;2023-05-16T13:16:53;23.20;57.40
59309;DHT22;48433;53.016;-2.260;2023-05-16T13:19:21;23.10;57.20
59309;DHT22;48433;53.016;-2.260;2023-05-16T13:21:50;23.10;57.30
59309;DHT22;48433;53.016;-2.260;2023-05-16T13:24:18;23.30;57.60
59309;DHT22;48433;53.016;-2.260;2023-05-16T13:26:45;23.50;57.10
59309;DHT22;48433;53.016;-2.260;2023-05-16T13:31:41;23.00;56.60
59309;DHT22;48433;53.016;-2.260;2023-05-16T13:34:09;22.60;57.30
59309;DHT22;48433;53.016;-2.260;2023-05-16T13:44:16;21.30;60.80
59309;DHT22;48433;53.016;-2.260;2023-05-16T13:46:44;21.10;60.90
59309;DHT22;48433;53.016;-2.260;2023-05-16T13:49:12;20.70;61.60
59309;DHT22;48433;53.016;-2.260;2023-05-16T13:51:40;20.60;63.60
59309;DHT22;48433;53.016;-2.260;2023-05-16T13:54:07;21.00;63.80
59309;DHT22;48433;53.016;-2.260;2023-05-16T13:56:35;21.60;62.60
59309;DHT22;48433;53.016;-2.260;2023-05-16T13:59:03;22.30;60.70
59309;DHT22;48433;53.016;-2.260;2023-05-16T14:01:34;22.90;59.40
59309;DHT22;48433;53.016;-2.260;2023-05-16T14:04:03;23.40;58.60
59309;DHT22;48433;53.016;-2.260;2023-05-16T14:06:30;23.40;57.50
59309;DHT22;48433;53.016;-2.260;2023-05-16T14:08:58;23.20;57.60
59309;DHT22;48433;53.016;-2.260;2023-05-16T14:11:25;23.20;58.50
59309;DHT22;48433;53.016;-2.260;2023-05-16T14:13:56;23.30;58.00
59309;DHT22;48433;53.016;-2.260;2023-05-16T14:16:24;23.40;58.10
59309;DHT22;48433;53.016;-2.260;2023-05-16T14:18:52;23.40;57.90
59309;DHT22;48433;53.016;-2.260;2023-05-16T14:21:20;23.40;57.30
59309;DHT22;48433;53.016;-2.260;2023-05-16T14:23:47;23.40;58.20
59309;DHT22;48433;53.016;-2.260;2023-05-16T14:26:15;23.70;57.60
59309;DHT22;48433;53.016;-2.260;2023-05-16T14:28:44;23.80;56.70
59309;DHT22;48433;53.016;-2.260;2023-05-16T14:31:12;23.70;56.10
59309;DHT22;48433;53.016;-2.260;2023-05-16T14:33:39;23.50;56.00
59309;DHT22;48433;53.016;-2.260;2023-05-16T14:36:07;23.50;56.50
59309;DHT22;48433;53.016;-2.260;2023-05-16T14:38:35;23.70;55.80
59309;DHT22;48433;53.016;-2.260;2023-05-16T14:41:03;23.60;55.20
59309;DHT22;48433;53.016;-2.260;2023-05-16T14:43:30;23.40;54.50
59309;DHT22;48433;53.016;-2.260;2023-05-16T14:45:58;22.90;55.70
59309;DHT22;48433;53.016;-2.260;2023-05-16T14:48:26;22.80;57.00
59309;DHT22;48433;53.016;-2.260;2023-05-16T14:50:54;22.70;57.80
59309;DHT22;48433;53.016;-2.260;2023-05-16T14:53:21;22.70;57.60
59309;DHT22;48433;53.016;-2.260;2023-05-16T14:55:49;23.00;56.80
59309;DHT22;48433;53.016;-2.260;2023-05-16T14:58:16;23.40;56.60
59309;DHT22;48433;53.016;-2.260;2023-05-16T15:00:44;23.90;56.10
59309;DHT22;48433;53.016;-2.260;2023-05-16T15:03:12;24.20;55.80
59309;DHT22;48433;53.016;-2.260;2023-05-16T15:05:42;24.40;54.60
59309;DHT22;48433;53.016;-2.260;2023-05-16T15:08:10;23.90;54.90
59309;DHT22;48433;53.016;-2.260;2023-05-16T15:10:38;23.30;54.80
59309;DHT22;48433;53.016;-2.260;2023-05-16T15:13:05;22.80;55.60
59309;DHT22;48433;53.016;-2.260;2023-05-16T15:15:33;22.50;56.30
59309;DHT22;48433;53.016;-2.260;2023-05-16T15:18:01;22.30;57.00
59309;DHT22;48433;53.016;-2.260;2023-05-16T15:22:57;21.60;57.90
59309;DHT22;48433;53.016;-2.260;2023-05-16T15:25:25;21.30;59.10
59309;DHT22;48433;53.016;-2.260;2023-05-16T15:27:53;21.60;59.60
59309;DHT22;48433;53.016;-2.260;2023-05-16T15:32:49;22.70;58.00
59309;DHT22;48433;53.016;-2.260;2023-05-16T15:35:16;23.10;57.50
59309;DHT22;48433;53.016;-2.260;2023-05-16T15:40:13;23.00;56.30
59309;DHT22;48433;53.016;-2.260;2023-05-16T15:42:40;22.70;55.80
59309;DHT22;48433;53.016;-2.260;2023-05-16T15:45:11;22.00;56.60
59309;DHT22;48433;53.016;-2.260;2023-05-16T15:47:40;21.30;57.50
59309;DHT22;48433;53.016;-2.260;2023-05-16T15:50:08;20.60;58.70
59309;DHT22;48433;53.016;-2.260;2023-05-16T15:52:36;20.30;60.10
59309;DHT22;48433;53.016;-2.260;2023-05-16T15:55:04;20.40;60.90
59309;DHT22;48433;53.016;-2.260;2023-05-16T15:57:32;20.30;60.80
59309;DHT22;48433;53.016;-2.260;2023-05-16T16:00:00;20.10;61.60
59309;DHT22;48433;53.016;-2.260;2023-05-16T16:04:55;19.60;62.10
59309;DHT22;48433;53.016;-2.260;2023-05-16T16:07:23;19.40;63.10
59309;DHT22;48433;53.016;-2.260;2023-05-16T16:12:19;19.10;64.40
59309;DHT22;48433;53.016;-2.260;2023-05-16T16:17:16;18.70;65.40
59309;DHT22;48433;53.016;-2.260;2023-05-16T16:22:11;18.50;67.10
59309;DHT22;48433;53.016;-2.260;2023-05-16T16:29:35;18.90;67.60
59309;DHT22;48433;53.016;-2.260;2023-05-16T16:32:03;19.00;67.70
59309;DHT22;48433;53.016;-2.260;2023-05-16T16:36:58;19.10;67.10
59309;DHT22;48433;53.016;-2.260;2023-05-16T16:41:56;18.90;67.10
59309;DHT22;48433;53.016;-2.260;2023-05-16T16:44:24;18.90;67.30
59309;DHT22;48433;53.016;-2.260;2023-05-16T16:46:52;18.90;66.40
59309;DHT22;48433;53.016;-2.260;2023-05-16T16:49:20;18.90;66.70
59309;DHT22;48433;53.016;-2.260;2023-05-16T16:54:16;18.90;67.50
59309;DHT22;48433;53.016;-2.260;2023-05-16T16:56:43;18.90;66.90
59309;DHT22;48433;53.016;-2.260;2023-05-16T16:59:13;18.80;66.90
59309;DHT22;48433;53.016;-2.260;2023-05-16T17:06:36;18.50;69.40
59309;DHT22;48433;53.016;-2.260;2023-05-16T17:16:32;18.00;69.80
59309;DHT22;48433;53.016;-2.260;2023-05-16T17:46:11;16.80;76.00
59309;DHT22;48433;53.016;-2.260;2023-05-16T17:48:39;16.80;76.40
59309;DHT22;48433;53.016;-2.260;2023-05-16T17:53:35;16.80;77.80
59309;DHT22;48433;53.016;-2.260;2023-05-16T17:56:04;16.80;78.60
59309;DHT22;48433;53.016;-2.260;2023-05-16T17:58:31;16.90;78.90
59309;DHT22;48433;53.016;-2.260;2023-05-16T18:15:48;16.20;81.60
59309;DHT22;48433;53.016;-2.260;2023-05-16T18:33:04;15.90;82.60
59309;DHT22;48433;53.016;-2.260;2023-05-16T18:35:32;15.80;82.70
59309;DHT22;48433;53.016;-2.260;2023-05-16T18:38:00;15.60;82.90
59309;DHT22;48433;53.016;-2.260;2023-05-16T18:42:58;15.40;83.30
59309;DHT22;48433;53.016;-2.260;2023-05-16T18:45:26;15.30;83.90
59309;DHT22;48433;53.016;-2.260;2023-05-16T18:50:23;15.10;85.30
59309;DHT22;48433;53.016;-2.260;2023-05-16T18:52:52;15.00;85.70
59309;DHT22;48433;53.016;-2.260;2023-05-16T18:55:23;14.90;86.30
59309;DHT22;48433;53.016;-2.260;2023-05-16T18:57:51;14.70;87.40
59309;DHT22;48433;53.016;-2.260;2023-05-16T19:00:19;14.70;88.40
59309;DHT22;48433;53.016;-2.260;2023-05-16T19:12:40;14.20;91.40
59309;DHT22;48433;53.016;-2.260;2023-05-16T19:15:08;14.10;91.80
59309;DHT22;48433;53.016;-2.260;2023-05-16T19:17:36;14.10;92.30
59309;DHT22;48433;53.016;-2.260;2023-05-16T19:20:06;14.00;92.50
59309;DHT22;48433;53.016;-2.260;2023-05-16T19:25:04;13.90;93.80
59309;DHT22;48433;53.016;-2.260;2023-05-16T19:27:32;13.70;94.10
59309;DHT22;48433;53.016;-2.260;2023-05-16T19:29:59;13.70;94.40
59309;DHT22;48433;53.016;-2.260;2023-05-16T19:34:56;13.50;95.50
59309;DHT22;48433;53.016;-2.260;2023-05-16T19:39:52;13.20;96.60
59309;DHT22;48433;53.016;-2.260;2023-05-16T19:54:43;12.90;99.90
59309;DHT22;48433;53.016;-2.260;2023-05-16T20:02:08;12.60;99.90
59309;DHT22;48433;53.016;-2.260;2023-05-16T20:11:59;12.40;99.90
59309;DHT22;48433;53.016;-2.260;2023-05-16T20:16:56;12.20;99.90
59309;DHT22;48433;53.016;-2.260;2023-05-16T20:19:24;12.20;99.90
59309;DHT22;48433;53.016;-2.260;2023-05-16T20:21:52;12.10;99.90
59309;DHT22;48433;53.016;-2.260;2023-05-16T20:24:20;12.10;99.90
59309;DHT22;48433;53.016;-2.260;2023-05-16T20:26:48;12.00;99.90
59309;DHT22;48433;53.016;-2.260;2023-05-16T20:29:15;11.90;99.90
59309;DHT22;48433;53.016;-2.260;2023-05-16T20:46:32;11.60;99.90
59309;DHT22;48433;53.016;-2.260;2023-05-16T20:49:00;11.60;99.90
59309;DHT22;48433;53.016;-2.260;2023-05-16T20:51:28;11.60;99.90
59309;DHT22;48433;53.016;-2.260;2023-05-16T20:53:55;11.50;99.90
59309;DHT22;48433;53.016;-2.260;2023-05-16T20:58:52;11.40;99.90